createdAt,value
2023-03-31T00:00:42.889Z,73.94
2023-03-31T00:03:22.188Z,74.13
2023-03-31T00:05:58.549Z,74.24
2023-03-31T00:08:36.645Z,74.16
2023-03-31T00:11:09.695Z,74.20
2023-03-31T00:13:42.129Z,74.39
2023-03-31T00:16:15.293Z,74.41
2023-03-31T00:18:51.141Z,74.37
2023-03-31T00:21:29.944Z,74.17
2023-03-31T00:24:04.122Z,74.65
2023-03-31T00:26:37.251Z,74.70
2023-03-31T00:29:10.749Z,74.60
2023-03-31T00:31:43.053Z,74.50
2023-03-31T00:34:15.554Z,74.66
2023-03-31T00:36:48.459Z,74.97
2023-03-31T00:39:21.834Z,74.91
2023-03-31T00:41:54.418Z,74.95
2023-03-31T00:44:30.655Z,74.97
2023-03-31T00:47:07.198Z,74.99
2023-03-31T00:49:43.007Z,75.02
2023-03-31T00:52:20.128Z,75.06
2023-03-31T00:54:55.628Z,74.80
2023-03-31T00:57:32.633Z,75.00
2023-03-31T01:00:14.380Z,74.91
2023-03-31T01:02:52.697Z,75.00
2023-03-31T01:05:28.785Z,75.18
2023-03-31T01:08:03.447Z,75.15
2023-03-31T01:10:41.946Z,75.12
2023-03-31T01:13:16.325Z,75.14
2023-03-31T01:15:48.691Z,75.12
2023-03-31T01:18:22.246Z,75.34
2023-03-31T01:21:18.783Z,75.30
2023-03-31T01:24:32.132Z,75.31
2023-03-31T01:27:22.980Z,75.36
2023-03-31T01:30:24.047Z,75.31
2023-03-31T01:33:13.340Z,75.32
2023-03-31T01:36:08.766Z,75.50
2023-03-31T01:39:20.956Z,75.54
2023-03-31T01:41:59.407Z,75.45
2023-03-31T01:44:42.087Z,75.47
2023-03-31T01:47:22.954Z,75.42
2023-03-31T01:50:02.545Z,75.50
2023-03-31T01:52:42.526Z,75.66
2023-03-31T01:55:22.246Z,75.40
2023-03-31T01:57:58.933Z,75.56
2023-03-31T02:00:34.707Z,75.58
2023-03-31T02:03:12.852Z,75.50
2023-03-31T02:05:49.117Z,75.60
2023-03-31T02:08:26.247Z,75.60
2023-03-31T02:11:00.200Z,75.73
2023-03-31T02:13:36.322Z,75.78
2023-03-31T02:16:14.455Z,75.59
2023-03-31T02:18:50.178Z,75.83
2023-03-31T02:21:23.772Z,75.84
2023-03-31T02:23:56.412Z,75.90
2023-03-31T02:26:32.528Z,76.18
2023-03-31T02:29:05.158Z,76.03
2023-03-31T02:31:47.973Z,76.08
2023-03-31T02:34:21.050Z,76.11
2023-03-31T02:36:53.834Z,75.98
2023-03-31T02:39:30.846Z,76.10
2023-03-31T02:42:07.552Z,76.04
2023-03-31T02:44:41.436Z,76.28
2023-03-31T02:47:16.711Z,76.27
2023-03-31T02:49:54.580Z,76.16
2023-03-31T02:52:57.314Z,76.19
2023-03-31T02:55:49.012Z,76.23
2023-03-31T02:58:57.749Z,76.12
2023-03-31T03:01:46.536Z,76.19
2023-03-31T03:04:35.425Z,76.39
2023-03-31T03:07:13.812Z,76.24
2023-03-31T03:09:56.131Z,76.19
2023-03-31T03:12:34.617Z,76.33
2023-03-31T03:15:12.415Z,76.35
2023-03-31T03:17:48.004Z,76.39
2023-03-31T03:20:22.348Z,76.21
2023-03-31T03:22:54.719Z,76.26
2023-03-31T03:25:27.158Z,76.30
2023-03-31T03:27:59.528Z,76.40
2023-03-31T03:30:31.928Z,76.47
2023-03-31T03:33:06.356Z,76.40
2023-03-31T03:35:38.829Z,76.36
2023-03-31T03:38:11.294Z,76.55
2023-03-31T03:40:43.576Z,76.45
2023-03-31T03:43:15.860Z,76.46
2023-03-31T03:45:52.117Z,76.38
2023-03-31T03:48:24.608Z,76.68
2023-03-31T03:50:57.516Z,76.65
2023-03-31T03:53:30.405Z,76.79
2023-03-31T03:56:02.865Z,76.71
2023-03-31T03:58:35.311Z,76.62
2023-03-31T04:01:07.811Z,76.79
2023-03-31T04:03:40.179Z,76.74
2023-03-31T04:06:12.612Z,76.89
2023-03-31T04:08:45.035Z,76.83
2023-03-31T04:11:19.453Z,76.81
2023-03-31T04:13:51.967Z,76.88
2023-03-31T04:16:25.606Z,76.81
2023-03-31T04:18:59.033Z,76.93
2023-03-31T04:21:35.084Z,76.98
2023-03-31T04:24:11.754Z,77.20
2023-03-31T04:26:44.508Z,77.19
2023-03-31T04:29:20.005Z,77.06
2023-03-31T04:31:54.079Z,77.07
2023-03-31T04:34:35.190Z,77.12
2023-03-31T04:37:10.812Z,77.09
2023-03-31T04:39:46.693Z,77.14
2023-03-31T04:42:19.160Z,77.23
2023-03-31T04:44:51.521Z,77.43
2023-03-31T04:47:24.036Z,77.48
2023-03-31T04:49:56.332Z,77.28
2023-03-31T04:52:28.718Z,77.22
2023-03-31T04:55:01.059Z,77.28
2023-03-31T04:57:33.517Z,77.46
2023-03-31T05:00:08.050Z,77.45
2023-03-31T05:02:40.457Z,77.36
2023-03-31T05:05:13.616Z,77.55
2023-03-31T05:07:46.298Z,77.47
2023-03-31T05:10:18.758Z,77.54
2023-03-31T05:12:51.289Z,77.60
2023-03-31T05:15:24.687Z,77.54
2023-03-31T05:17:59.062Z,77.47
2023-03-31T05:20:31.681Z,77.57
2023-03-31T05:23:04.037Z,77.55
2023-03-31T05:25:36.800Z,77.55
2023-03-31T05:28:09.875Z,77.54
2023-03-31T05:30:42.151Z,77.78
2023-03-31T05:33:14.634Z,77.59
2023-03-31T05:35:47.216Z,77.68
2023-03-31T05:38:19.570Z,77.55
2023-03-31T05:40:51.904Z,77.78
2023-03-31T05:43:24.466Z,77.85
2023-03-31T05:45:56.814Z,77.98
2023-03-31T05:48:29.249Z,77.72
2023-03-31T05:51:02.316Z,77.88
2023-03-31T05:53:35.180Z,77.81
2023-03-31T05:56:09.163Z,77.75
2023-03-31T05:58:41.509Z,77.98
2023-03-31T06:01:19.792Z,77.99
2023-03-31T06:03:52.832Z,78.38
2023-03-31T06:06:25.517Z,78.25
2023-03-31T06:08:58.019Z,77.97
2023-03-31T06:11:30.386Z,78.03
2023-03-31T06:14:02.603Z,78.21
2023-03-31T06:16:35.198Z,78.29
2023-03-31T06:19:07.501Z,78.25
2023-03-31T06:21:39.756Z,78.24
2023-03-31T06:24:13.131Z,78.39
2023-03-31T06:26:45.655Z,78.53
2023-03-31T06:29:18.018Z,78.35
2023-03-31T06:31:50.571Z,78.41
2023-03-31T06:34:23.006Z,78.48
2023-03-31T06:36:55.328Z,78.44
2023-03-31T06:39:28.363Z,78.55
2023-03-31T06:42:00.791Z,78.58
2023-03-31T06:44:33.283Z,78.63
2023-03-31T06:47:05.775Z,78.54
2023-03-31T06:49:38.088Z,78.95
2023-03-31T06:52:10.379Z,78.88
2023-03-31T06:54:43.153Z,78.88
2023-03-31T06:57:16.041Z,78.81
2023-03-31T06:59:48.461Z,78.81
2023-03-31T07:02:21.243Z,79.12
2023-03-31T07:04:53.808Z,78.81
2023-03-31T07:07:26.234Z,78.73
2023-03-31T07:09:58.673Z,78.78
2023-03-31T07:12:33.621Z,78.88
2023-03-31T07:15:04.564Z,78.77
2023-03-31T07:17:37.950Z,78.98
2023-03-31T07:20:15.133Z,79.09
2023-03-31T07:22:48.708Z,79.34
2023-03-31T07:25:21.111Z,79.12
2023-03-31T07:27:53.419Z,78.93
2023-03-31T07:30:26.004Z,79.23
2023-03-31T07:32:58.820Z,78.88
2023-03-31T07:35:31.568Z,79.22
2023-03-31T07:38:04.101Z,79.13
2023-03-31T07:40:36.602Z,79.21
2023-03-31T07:43:09.428Z,79.36
2023-03-31T07:45:42.182Z,79.33
2023-03-31T07:48:14.534Z,79.30
2023-03-31T07:50:46.810Z,79.23
2023-03-31T07:53:24.869Z,79.23
2023-03-31T07:55:57.232Z,79.26
2023-03-31T07:58:30.040Z,79.25
2023-03-31T08:01:02.904Z,79.41
2023-03-31T08:03:35.605Z,79.43
2023-03-31T08:06:08.953Z,79.45
2023-03-31T08:08:43.315Z,79.84
2023-03-31T08:11:15.654Z,79.46
2023-03-31T08:13:47.999Z,79.53
2023-03-31T08:16:20.525Z,79.51
2023-03-31T08:18:53.323Z,79.68
2023-03-31T08:21:25.955Z,79.88
2023-03-31T08:23:59.505Z,79.77
2023-03-31T08:26:32.994Z,79.64
2023-03-31T08:29:05.387Z,79.75
2023-03-31T08:31:37.784Z,79.94
2023-03-31T08:34:10.166Z,79.99
2023-03-31T08:36:43.096Z,79.77
2023-03-31T08:39:15.568Z,79.84
2023-03-31T08:41:59.706Z,80.16
2023-03-31T08:44:37.147Z,80.01
2023-03-31T08:47:16.689Z,79.95
2023-03-31T08:49:53.715Z,80.03
2023-03-31T08:52:32.865Z,80.31
2023-03-31T08:55:11.892Z,80.15
2023-03-31T08:57:54.241Z,80.18
2023-03-31T09:00:26.907Z,80.24
2023-03-31T09:03:08.201Z,80.44
2023-03-31T09:06:01.013Z,80.21
2023-03-31T09:08:39.427Z,80.53
2023-03-31T09:11:27.367Z,80.56
2023-03-31T09:14:12.318Z,80.46
2023-03-31T09:16:51.924Z,80.36
2023-03-31T09:19:36.586Z,80.76
2023-03-31T09:22:17.765Z,80.64
2023-03-31T09:24:57.401Z,80.39
2023-03-31T09:27:35.014Z,80.34
2023-03-31T09:30:16.856Z,80.62
2023-03-31T09:32:53.665Z,80.41
2023-03-31T09:35:29.280Z,80.43
2023-03-31T09:38:02.457Z,80.45
2023-03-31T09:40:35.581Z,80.28
2023-03-31T09:43:10.496Z,80.43
2023-03-31T09:45:42.951Z,80.71
2023-03-31T09:48:19.576Z,80.42
2023-03-31T09:50:55.396Z,80.54
2023-03-31T09:53:35.920Z,80.31
2023-03-31T09:56:11.489Z,80.48
2023-03-31T09:58:46.245Z,80.37
2023-03-31T10:01:18.936Z,80.36
2023-03-31T10:03:54.004Z,80.18
2023-03-31T10:06:27.612Z,80.25
2023-03-31T10:09:02.555Z,80.05
2023-03-31T10:11:33.564Z,80.15
2023-03-31T10:14:13.388Z,80.39
2023-03-31T10:16:49.863Z,80.37
2023-03-31T10:19:26.065Z,80.29
2023-03-31T10:22:04.999Z,80.32
2023-03-31T10:24:41.805Z,80.26
2023-03-31T10:27:24.110Z,80.22
2023-03-31T10:29:58.449Z,80.26
2023-03-31T10:32:32.874Z,80.26
2023-03-31T10:35:15.586Z,80.29
2023-03-31T10:37:49.313Z,80.25
2023-03-31T10:40:26.296Z,80.43
2023-03-31T10:43:14.741Z,80.44
2023-03-31T10:45:51.210Z,80.49
2023-03-31T10:48:29.193Z,80.40
2023-03-31T10:51:06.392Z,80.36
2023-03-31T10:53:44.780Z,80.09
2023-03-31T10:56:39.763Z,80.00
2023-03-31T10:59:32.336Z,79.91
2023-03-31T11:02:36.826Z,79.84
2023-03-31T11:05:16.977Z,79.51
2023-03-31T11:08:01.915Z,79.86
2023-03-31T11:10:54.308Z,79.45
2023-03-31T11:13:34.330Z,79.54
2023-03-31T11:16:19.963Z,79.49
2023-03-31T11:19:12.999Z,79.46
2023-03-31T11:21:59.786Z,79.44
2023-03-31T11:24:48.135Z,79.13
2023-03-31T11:27:35.524Z,78.86
2023-03-31T11:30:18.629Z,79.25
2023-03-31T11:33:04.196Z,79.34
2023-03-31T11:35:54.644Z,79.20
2023-03-31T11:38:48.684Z,79.51
2023-03-31T11:41:24.449Z,79.49
2023-03-31T11:44:03.851Z,79.21
2023-03-31T11:46:42.260Z,79.39
2023-03-31T11:49:21.775Z,78.76
2023-03-31T11:51:58.071Z,78.41
2023-03-31T11:54:36.079Z,78.65
2023-03-31T11:57:16.268Z,78.18
2023-03-31T11:59:55.936Z,77.79
2023-03-31T12:02:36.515Z,77.39
2023-03-31T12:05:13.069Z,77.59
2023-03-31T12:07:52.691Z,77.62
2023-03-31T12:10:32.225Z,77.50
2023-03-31T12:13:18.619Z,77.16
2023-03-31T12:16:01.503Z,77.18
2023-03-31T12:18:38.178Z,76.98
2023-03-31T12:21:12.525Z,77.40
2023-03-31T12:23:47.342Z,77.55
2023-03-31T12:26:26.304Z,76.91
2023-03-31T12:29:05.236Z,76.67
2023-03-31T12:31:41.128Z,76.73
2023-03-31T12:34:19.082Z,76.44
2023-03-31T12:37:10.825Z,75.91
2023-03-31T12:39:53.165Z,76.27
2023-03-31T12:42:57.190Z,76.37
2023-03-31T12:45:32.085Z,75.56
2023-03-31T12:48:19.896Z,75.38
2023-03-31T12:51:05.960Z,74.80
2023-03-31T12:53:44.494Z,75.05
2023-03-31T12:56:16.927Z,74.98
2023-03-31T12:58:49.640Z,75.12
2023-03-31T13:01:23.136Z,74.97
2023-03-31T13:04:19.250Z,74.73
2023-03-31T13:06:59.919Z,74.83
2023-03-31T13:09:57.003Z,74.79
2023-03-31T13:12:33.224Z,74.93
2023-03-31T13:15:14.924Z,74.84
2023-03-31T13:17:59.425Z,74.86
2023-03-31T13:20:45.271Z,74.84
2023-03-31T13:23:22.660Z,74.39
2023-03-31T13:25:56.703Z,74.19
2023-03-31T13:29:10.150Z,74.55
2023-03-31T13:32:17.531Z,74.27
2023-03-31T13:34:57.028Z,74.07
2023-03-31T13:37:55.612Z,74.21
2023-03-31T13:40:57.312Z,73.80
2023-03-31T13:44:01.129Z,73.80
2023-03-31T13:46:54.016Z,73.94
2023-03-31T13:49:53.973Z,73.29
2023-03-31T13:52:45.051Z,72.85
2023-03-31T13:55:34.418Z,72.70
2023-03-31T13:58:35.704Z,73.21
2023-03-31T14:01:33.150Z,73.31
2023-03-31T14:04:18.090Z,73.45
2023-03-31T14:06:56.104Z,73.60
2023-03-31T14:09:33.566Z,73.63
2023-03-31T14:12:23.089Z,73.75
2023-03-31T14:14:57.170Z,73.70
2023-03-31T14:17:32.681Z,73.52
2023-03-31T14:20:27.177Z,73.56
2023-03-31T14:23:09.524Z,73.35
2023-03-31T14:25:51.306Z,73.37
2023-03-31T14:28:52.742Z,73.32
2023-03-31T14:31:35.481Z,73.27
2023-03-31T14:34:25.435Z,73.24
2023-03-31T14:37:02.614Z,73.27
2023-03-31T14:39:37.763Z,73.11
2023-03-31T14:42:15.456Z,73.23
2023-03-31T14:44:48.813Z,73.21
2023-03-31T14:47:24.289Z,73.17
2023-03-31T14:50:06.397Z,73.17
2023-03-31T14:52:39.977Z,73.28
2023-03-31T14:55:18.480Z,73.17
2023-03-31T14:57:53.603Z,72.95
2023-03-31T15:00:29.879Z,72.99
2023-03-31T15:03:04.892Z,73.09
2023-03-31T15:05:39.590Z,73.08
2023-03-31T15:08:17.938Z,73.01
2023-03-31T15:11:02.279Z,72.82
2023-03-31T15:14:00.649Z,72.91
2023-03-31T15:16:43.251Z,73.01
2023-03-31T15:19:18.704Z,72.94
2023-03-31T15:21:57.870Z,73.01
2023-03-31T15:24:30.675Z,72.85
2023-03-31T15:27:08.657Z,72.98
2023-03-31T15:29:46.170Z,72.99
2023-03-31T15:32:24.473Z,73.10
2023-03-31T15:37:52.093Z,72.87
2023-03-31T15:40:27.716Z,72.82
2023-03-31T15:45:54.147Z,72.92
2023-03-31T15:48:30.144Z,72.91
2023-03-31T15:51:09.102Z,72.97
2023-03-31T15:53:46.797Z,72.87
2023-03-31T15:56:34.967Z,72.89
2023-03-31T15:59:23.786Z,72.86
2023-03-31T16:02:00.242Z,72.85
2023-03-31T16:04:35.111Z,72.79
2023-03-31T16:07:16.239Z,72.91
2023-03-31T16:09:53.710Z,72.83
2023-03-31T16:12:30.735Z,72.87
2023-03-31T16:15:08.590Z,72.82
2023-03-31T16:17:47.455Z,72.79
2023-03-31T16:20:24.328Z,72.83
2023-03-31T16:22:59.671Z,72.84
2023-03-31T16:25:33.518Z,72.85
2023-03-31T16:28:06.062Z,72.80
2023-03-31T16:30:40.606Z,72.85
2023-03-31T16:33:15.803Z,72.91
2023-03-31T16:35:51.175Z,72.99
2023-03-31T16:38:25.290Z,72.92
2023-03-31T16:40:59.062Z,72.95
2023-03-31T16:43:33.880Z,73.07
2023-03-31T16:46:06.383Z,73.13
2023-03-31T16:48:38.860Z,72.84
2023-03-31T16:51:11.174Z,72.23
2023-03-31T16:53:43.458Z,72.38
2023-03-31T16:56:16.401Z,72.35
2023-03-31T16:58:49.171Z,72.26
2023-03-31T17:01:21.567Z,72.18
2023-03-31T17:03:54.086Z,72.12
2023-03-31T17:06:26.739Z,72.12
2023-03-31T17:08:59.414Z,72.24
2023-03-31T17:11:34.128Z,72.29
2023-03-31T17:14:07.115Z,72.36
2023-03-31T17:16:48.146Z,72.27
2023-03-31T17:19:20.979Z,72.24
2023-03-31T17:21:53.641Z,72.36
2023-03-31T17:24:25.994Z,72.54
2023-03-31T17:26:58.707Z,72.53
2023-03-31T17:29:31.413Z,72.60
2023-03-31T17:32:04.329Z,72.60
2023-03-31T17:34:36.683Z,72.68
2023-03-31T17:37:09.149Z,72.54
2023-03-31T17:39:41.619Z,72.65
2023-03-31T17:42:14.939Z,72.59
2023-03-31T17:44:50.150Z,72.63
2023-03-31T17:47:23.153Z,72.72
2023-03-31T17:49:55.322Z,72.75
2023-03-31T17:52:27.971Z,72.88
2023-03-31T17:55:00.355Z,72.90
2023-03-31T17:57:33.441Z,72.87
2023-03-31T18:00:09.067Z,73.01
2023-03-31T18:02:44.481Z,72.91
2023-03-31T18:05:18.586Z,72.97
2023-03-31T18:07:52.119Z,72.94
2023-03-31T18:10:24.908Z,72.93
2023-03-31T18:12:59.361Z,73.04
2023-03-31T18:15:32.510Z,73.06
2023-03-31T18:18:05.256Z,72.84
2023-03-31T18:20:37.798Z,73.06
2023-03-31T18:23:10.262Z,72.99
2023-03-31T18:25:46.800Z,73.10
2023-03-31T18:28:20.912Z,73.12
2023-03-31T18:30:53.588Z,73.23
2023-03-31T18:33:28.506Z,73.22
2023-03-31T18:36:01.354Z,73.11
2023-03-31T18:38:35.672Z,73.33
2023-03-31T18:41:08.179Z,73.28
2023-03-31T18:43:40.478Z,73.41
2023-03-31T18:46:13.840Z,73.35
2023-03-31T18:48:46.507Z,73.45
2023-03-31T18:51:19.312Z,73.37
2023-03-31T18:53:51.737Z,73.35
2023-03-31T18:56:24.217Z,73.27
2023-03-31T18:58:56.770Z,73.41
2023-03-31T19:01:29.434Z,73.65
2023-03-31T19:04:01.795Z,73.56
2023-03-31T19:06:34.394Z,73.70
2023-03-31T19:09:06.959Z,73.67
2023-03-31T19:11:40.001Z,73.69
2023-03-31T19:14:12.484Z,73.77
2023-03-31T19:16:45.142Z,73.91
2023-03-31T19:19:17.590Z,73.77
2023-03-31T19:21:50.867Z,73.89
2023-03-31T19:24:24.350Z,73.92
2023-03-31T19:26:58.015Z,73.95
2023-03-31T19:29:31.800Z,73.88
2023-03-31T19:32:04.581Z,73.91
2023-03-31T19:34:36.952Z,73.89
2023-03-31T19:37:09.792Z,73.93
2023-03-31T19:39:42.407Z,73.99
2023-03-31T19:42:15.577Z,74.05
2023-03-31T19:44:47.950Z,74.35
2023-03-31T19:47:20.607Z,74.17
2023-03-31T19:49:52.798Z,74.17
2023-03-31T19:52:25.872Z,74.33
2023-03-31T19:54:58.206Z,74.39
2023-03-31T19:57:31.168Z,74.37
2023-03-31T20:00:05.381Z,74.51
2023-03-31T20:02:38.064Z,74.62
2023-03-31T20:05:12.798Z,74.53
2023-03-31T20:07:45.190Z,74.52
2023-03-31T20:10:17.634Z,74.60
2023-03-31T20:12:52.080Z,74.55
2023-03-31T20:15:24.843Z,74.73
2023-03-31T20:17:57.685Z,74.85
2023-03-31T20:20:30.384Z,74.64
2023-03-31T20:23:03.621Z,74.74
2023-03-31T20:25:38.835Z,74.82
2023-03-31T20:28:11.586Z,74.91
2023-03-31T20:30:44.044Z,74.77
2023-03-31T20:33:16.817Z,74.83
2023-03-31T20:35:49.652Z,74.85
2023-03-31T20:38:22.323Z,74.84
2023-03-31T20:40:55.071Z,74.99
2023-03-31T20:43:28.538Z,74.96
2023-03-31T20:46:04.789Z,74.90
2023-03-31T20:48:40.612Z,74.92
2023-03-31T20:51:16.513Z,75.01
2023-03-31T20:53:51.428Z,75.10
2023-03-31T20:56:25.930Z,75.05
2023-03-31T20:58:59.793Z,75.08
2023-03-31T21:01:37.500Z,75.19
2023-03-31T21:04:11.370Z,75.12
2023-03-31T21:06:46.047Z,75.22
2023-03-31T21:09:18.757Z,75.28
2023-03-31T21:11:51.999Z,75.37
2023-03-31T21:14:24.982Z,75.15
2023-03-31T21:16:57.463Z,75.33
2023-03-31T21:19:29.943Z,75.36
2023-03-31T21:22:02.496Z,75.40
2023-03-31T21:24:35.304Z,75.50
2023-03-31T21:27:07.631Z,75.37
2023-03-31T21:29:40.065Z,75.48
2023-03-31T21:32:13.528Z,75.54
2023-03-31T21:34:46.336Z,75.66
2023-03-31T21:37:18.770Z,75.66
2023-03-31T21:39:51.233Z,75.69
2023-03-31T21:42:24.296Z,75.68
2023-03-31T21:44:59.074Z,75.66
2023-03-31T21:47:32.837Z,75.75
2023-03-31T21:50:05.418Z,75.61
2023-03-31T21:52:38.036Z,75.74
2023-03-31T21:55:11.891Z,75.70
2023-03-31T21:57:44.343Z,75.74
2023-03-31T22:00:18.239Z,75.97
2023-03-31T22:02:51.518Z,75.95
2023-03-31T22:05:25.900Z,75.94
2023-03-31T22:07:58.239Z,76.06
2023-03-31T22:10:30.594Z,75.88
2023-03-31T22:13:03.155Z,75.90
2023-03-31T22:15:35.994Z,76.08
2023-03-31T22:18:08.613Z,76.15
2023-03-31T22:20:42.089Z,76.10
2023-03-31T22:23:15.066Z,76.15
2023-03-31T22:25:47.741Z,76.27
2023-03-31T22:28:20.418Z,76.32
2023-03-31T22:30:52.841Z,76.15
2023-03-31T22:33:25.273Z,76.38
2023-03-31T22:35:57.677Z,76.31
2023-03-31T22:38:30.156Z,76.29
2023-03-31T22:41:02.800Z,76.42
2023-03-31T22:43:36.079Z,76.55
2023-03-31T22:46:09.914Z,76.57
2023-03-31T22:48:42.225Z,76.53
2023-03-31T22:51:14.635Z,76.61
2023-03-31T22:53:49.921Z,76.60
2023-03-31T22:56:23.342Z,76.68
2023-03-31T22:58:57.943Z,76.59
2023-03-31T23:01:30.349Z,76.88
2023-03-31T23:04:03.083Z,76.82
2023-03-31T23:06:36.252Z,76.91
2023-03-31T23:09:08.714Z,76.92
2023-03-31T23:11:40.981Z,77.05
2023-03-31T23:14:13.961Z,76.92
2023-03-31T23:16:46.368Z,76.83
2023-03-31T23:19:19.839Z,76.95
2023-03-31T23:21:52.656Z,77.02
2023-03-31T23:24:25.172Z,77.01
2023-03-31T23:26:57.523Z,77.19
2023-03-31T23:29:30.899Z,77.19
2023-03-31T23:32:03.569Z,77.15
2023-03-31T23:34:36.268Z,77.19
2023-03-31T23:37:08.952Z,77.32
2023-03-31T23:39:41.964Z,77.27
2023-03-31T23:42:17.470Z,77.40
2023-03-31T23:44:49.858Z,77.33
2023-03-31T23:47:22.290Z,77.22
2023-03-31T23:49:57.029Z,77.20
2023-03-31T23:52:29.464Z,77.28
2023-03-31T23:55:02.105Z,77.41
2023-03-31T23:57:34.582Z,77.38
